Time;durP1;ratioP1;P1;durP2;ratioP2;P2;SDS_P1;SDS_P2;PMS_P1;PMS_P2;Temp;Humidity;BMP_temperature;BMP_pressure;BME280_temperature;BME280_humidity;BME280_pressure;Samples;Min_cycle;Max_cycle;Signal;HPM_P1;HPM_P2
2020/12/26 00:00:15;;;;;;;11.53;5.50;;;5.00;99.90;;;;;;5056559;28;20180;-65
2020/12/26 00:02:41;;;;;;;12.23;4.90;;;4.80;99.90;;;;;;5055640;28;20314;-65
2020/12/26 00:05:06;;;;;;;10.00;5.10;;;4.50;1.00;;;;;;5055672;28;20219;-65
2020/12/26 00:07:32;;;;;;;7.20;4.30;;;4.30;1.00;;;;;;5056408;28;20533;-65
2020/12/26 00:09:57;;;;;;;11.37;5.17;;;4.50;1.00;;;;;;5055966;28;20188;-65
2020/12/26 00:12:23;;;;;;;11.10;4.60;;;4.40;1.00;;;;;;5055485;28;20193;-65
2020/12/26 00:14:48;;;;;;;12.00;4.60;;;4.40;99.90;;;;;;5055478;28;20267;-65
2020/12/26 00:17:15;;;;;;;13.43;4.57;;;4.50;1.00;;;;;;5055351;28;20707;-65
2020/12/26 00:19:40;;;;;;;14.90;4.97;;;4.60;1.00;;;;;;5055294;28;20541;-65
2020/12/26 00:22:06;;;;;;;10.03;5.10;;;4.50;1.00;;;;;;5055584;28;20165;-65
2020/12/26 00:24:32;;;;;;;12.80;5.00;;;4.50;1.00;;;;;;5055323;28;20216;-65
2020/12/26 00:26:58;;;;;;;14.20;5.10;;;4.40;99.90;;;;;;5055126;28;20575;-65
2020/12/26 00:29:24;;;;;;;10.15;4.90;;;4.60;1.00;;;;;;5054994;28;20172;-65
2020/12/26 00:31:49;;;;;;;10.07;4.53;;;4.50;1.00;;;;;;5055083;28;20188;-64
2020/12/26 00:34:15;;;;;;;11.47;5.17;;;4.70;1.00;;;;;;5054978;28;20177;-65
2020/12/26 00:36:41;;;;;;;11.13;5.90;;;4.80;1.00;;;;;;5055107;28;20160;-64
2020/12/26 00:39:06;;;;;;;11.53;5.00;;;4.80;1.00;;;;;;5054919;28;20220;-65
2020/12/26 00:41:32;;;;;;;11.27;5.73;;;4.70;99.90;;;;;;5054851;28;20223;-65
2020/12/26 00:43:57;;;;;;;11.37;4.53;;;4.60;1.00;;;;;;5054847;28;20207;-65
2020/12/26 00:46:23;;;;;;;9.77;5.03;;;4.80;99.90;;;;;;5054849;28;20307;-65
2020/12/26 00:48:50;;;;;;;7.60;5.60;;;4.60;1.00;;;;;;5054800;28;20242;-65
2020/12/26 00:51:16;;;;;;;8.23;5.40;;;4.80;1.00;;;;;;5054658;28;20207;-65
2020/12/26 00:53:42;;;;;;;9.23;5.50;;;4.70;99.90;;;;;;5054704;28;20533;-67
2020/12/26 00:56:07;;;;;;;9.40;5.60;;;4.70;99.90;;;;;;5054573;28;20377;-64
2020/12/26 00:58:33;;;;;;;7.27;4.63;;;4.70;99.90;;;;;;5054546;28;20410;-65
2020/12/26 01:00:59;;;;;;;8.70;4.90;;;4.40;99.90;;;;;;5054535;28;20169;-64
2020/12/26 01:03:24;;;;;;;7.47;4.97;;;4.60;1.00;;;;;;5054514;28;20796;-65
2020/12/26 01:05:50;;;;;;;7.97;4.93;;;4.40;1.00;;;;;;5054388;28;20677;-65
2020/12/26 01:08:15;;;;;;;6.30;5.00;;;4.40;1.00;;;;;;5054481;28;20234;-65
2020/12/26 01:10:41;;;;;;;7.03;4.80;;;4.60;1.00;;;;;;5054660;28;20248;-65
2020/12/26 01:13:06;;;;;;;11.40;5.93;;;4.30;1.00;;;;;;5054805;28;20192;-65
2020/12/26 01:15:32;;;;;;;11.40;5.77;;;4.30;1.00;;;;;;5054405;28;20557;-65
2020/12/26 01:17:57;;;;;;;12.27;5.90;;;4.50;1.00;;;;;;5054783;28;20650;-65
2020/12/26 01:20:23;;;;;;;19.93;6.73;;;4.80;99.90;;;;;;5054555;28;20169;-65
2020/12/26 01:22:48;;;;;;;8.90;6.17;;;4.50;99.90;;;;;;5054091;28;20176;-65
2020/12/26 01:25:14;;;;;;;7.50;5.20;;;4.40;1.00;;;;;;5054162;28;20189;-65
2020/12/26 01:27:39;;;;;;;12.70;6.40;;;4.40;99.90;;;;;;5054861;28;20173;-65
2020/12/26 01:30:06;;;;;;;7.33;5.30;;;4.50;1.00;;;;;;5054657;28;20259;-65
2020/12/26 01:32:32;;;;;;;12.25;6.03;;;4.40;99.90;;;;;;5053991;28;20192;-65
2020/12/26 01:34:58;;;;;;;14.95;5.95;;;4.20;1.00;;;;;;5054283;28;20192;-65
2020/12/26 01:37:24;;;;;;;14.50;6.20;;;4.20;1.00;;;;;;5053989;28;20176;-65
2020/12/26 01:39:50;;;;;;;11.53;6.27;;;4.30;1.00;;;;;;5053443;28;20169;-65
2020/12/26 01:42:16;;;;;;;11.75;7.20;;;4.30;1.00;;;;;;5053433;28;20408;-65
2020/12/26 01:44:42;;;;;;;12.73;7.00;;;4.50;1.00;;;;;;5053493;28;20287;-65
2020/12/26 01:47:09;;;;;;;10.13;6.30;;;4.30;1.00;;;;;;5053649;28;20438;-65
2020/12/26 01:49:35;;;;;;;12.80;5.60;;;4.30;1.00;;;;;;5053880;28;20593;-65
2020/12/26 01:52:02;;;;;;;15.82;5.95;;;4.10;1.00;;;;;;5053580;28;20220;-65
2020/12/26 01:54:28;;;;;;;10.82;6.85;;;4.30;1.00;;;;;;5053437;28;20192;-65
2020/12/26 01:56:55;;;;;;;12.45;6.03;;;4.20;1.00;;;;;;5053473;28;20180;-65
2020/12/26 01:59:21;;;;;;;11.35;6.30;;;4.30;1.00;;;;;;5053469;28;20165;-65
2020/12/26 02:01:49;;;;;;;8.63;6.00;;;4.40;1.00;;;;;;5053747;28;20173;-65
2020/12/26 02:04:15;;;;;;;13.82;7.82;;;4.50;1.00;;;;;;5053215;28;20693;-65
2020/12/26 02:06:51;;;;;;;12.57;6.90;;;4.30;1.00;;;;;;5053207;28;20310;-65
2020/12/26 02:09:17;;;;;;;12.45;6.70;;;4.40;1.00;;;;;;5053450;28;20648;-65
2020/12/26 02:11:42;;;;;;;15.13;7.27;;;4.40;1.00;;;;;;5053160;28;20267;-65
2020/12/26 02:14:08;;;;;;;9.53;6.63;;;4.20;1.00;;;;;;5053395;28;20189;-65
2020/12/26 02:16:48;;;;;;;13.30;6.07;;;4.20;24.20;;;;;;5053170;28;20177;-65
2020/12/26 02:19:15;;;;;;;10.13;5.88;;;4.40;1.00;;;;;;5053087;28;20208;-65
2020/12/26 02:21:41;;;;;;;10.00;6.30;;;4.40;1.00;;;;;;5053068;28;20169;-63
2020/12/26 02:24:08;;;;;;;9.80;6.40;;;4.40;1.00;;;;;;5052995;28;20188;-65
2020/12/26 02:26:33;;;;;;;9.68;6.30;;;4.40;1.00;;;;;;5053025;28;20609;-65
2020/12/26 02:28:59;;;;;;;13.30;7.73;;;4.20;1.00;;;;;;5053217;28;20169;-65
2020/12/26 02:31:25;;;;;;;13.37;7.33;;;4.70;1.00;;;;;;5051655;28;20429;-65
2020/12/26 02:33:51;;;;;;;10.60;7.10;;;4.50;99.90;;;;;;5052883;28;20930;-65
2020/12/26 02:36:17;;;;;;;11.83;6.13;;;4.40;1.00;;;;;;5052886;28;20590;-65
2020/12/26 02:38:43;;;;;;;13.80;6.57;;;4.60;1.00;;;;;;5052887;28;20173;-65
2020/12/26 02:41:09;;;;;;;12.07;6.57;;;4.70;1.00;;;;;;5053097;28;20537;-65
2020/12/26 02:43:35;;;;;;;10.27;6.80;;;4.70;1.00;;;;;;5053047;28;20173;-65
2020/12/26 02:46:00;;;;;;;13.40;7.47;;;4.70;1.00;;;;;;5053788;28;20227;-65
2020/12/26 02:48:26;;;;;;;12.80;8.00;;;4.80;99.90;;;;;;5053627;28;20606;-65
2020/12/26 02:50:52;;;;;;;9.27;7.50;;;4.90;99.90;;;;;;5052949;28;20177;-65
2020/12/26 02:53:18;;;;;;;19.13;9.00;;;4.90;99.90;;;;;;5051998;28;20426;-66
2020/12/26 02:55:43;;;;;;;17.50;7.47;;;4.90;99.90;;;;;;5052667;28;20488;-65
2020/12/26 02:58:09;;;;;;;12.57;7.47;;;4.90;99.90;;;;;;5052717;28;20173;-65
2020/12/26 03:00:34;;;;;;;17.53;7.80;;;4.90;99.90;;;;;;5052637;28;20225;-65
2020/12/26 03:03:00;;;;;;;15.73;8.43;;;4.90;99.90;;;;;;5052709;28;20414;-65
2020/12/26 03:05:26;;;;;;;15.50;9.27;;;4.90;99.90;;;;;;5052571;28;20267;-65
2020/12/26 03:07:51;;;;;;;10.77;7.97;;;4.90;99.90;;;;;;5052905;28;20645;-65
2020/12/26 03:10:18;;;;;;;18.27;8.50;;;4.70;99.90;;;;;;5051315;28;20187;-65
2020/12/26 03:12:43;;;;;;;13.80;9.27;;;4.50;99.90;;;;;;5052761;28;20196;-65
2020/12/26 03:15:09;;;;;;;17.30;8.90;;;4.80;99.90;;;;;;5052957;28;20235;-65
2020/12/26 03:17:35;;;;;;;19.17;10.03;;;4.70;99.90;;;;;;5052532;28;20172;-65
2020/12/26 03:20:01;;;;;;;20.43;9.27;;;4.50;99.90;;;;;;5052560;28;20199;-65
2020/12/26 03:22:27;;;;;;;22.67;9.40;;;4.40;1.00;;;;;;5052683;28;20874;-65
2020/12/26 03:24:54;;;;;;;15.25;9.15;;;4.50;1.00;;;;;;5052608;28;20444;-65
2020/12/26 03:27:20;;;;;;;12.70;10.15;;;4.60;1.00;;;;;;5052348;28;20634;-65
2020/12/26 03:29:46;;;;;;;10.20;8.15;;;4.80;99.90;;;;;;5052822;28;20234;-65
2020/12/26 03:32:11;;;;;;;19.40;10.30;;;4.60;99.90;;;;;;5051020;28;20259;-65
2020/12/26 03:34:37;;;;;;;11.37;8.47;;;4.40;99.90;;;;;;5052148;28;20189;-65
2020/12/26 03:37:03;;;;;;;14.97;9.10;;;4.70;99.90;;;;;;5052310;28;20633;-65
2020/12/26 03:39:29;;;;;;;12.25;9.88;;;4.80;99.90;;;;;;5052550;28;20541;-65
2020/12/26 03:41:55;;;;;;;17.80;8.57;;;4.70;99.90;;;;;;5052601;28;20169;-64
2020/12/26 03:44:21;;;;;;;17.23;8.73;;;4.40;99.90;;;;;;5052265;28;20204;-65
2020/12/26 03:46:46;;;;;;;17.58;9.65;;;4.40;99.90;;;;;;5052209;28;20437;-65
2020/12/26 03:49:12;;;;;;;14.27;9.23;;;4.40;99.90;;;;;;5052267;28;20530;-65
2020/12/26 03:51:37;;;;;;;14.67;9.43;;;4.80;99.90;;;;;;5052155;28;20196;-65
2020/12/26 03:54:03;;;;;;;17.73;9.00;;;4.70;99.90;;;;;;5052093;28;20334;-65
2020/12/26 03:56:28;;;;;;;13.10;9.57;;;4.60;99.90;;;;;;5052096;28;20642;-65
2020/12/26 03:58:54;;;;;;;13.40;8.93;;;4.70;99.90;;;;;;5052112;28;20637;-65
2020/12/26 04:01:20;;;;;;;16.87;10.00;;;4.40;99.90;;;;;;5052058;28;20571;-65
2020/12/26 04:03:45;;;;;;;15.93;9.67;;;4.40;99.90;;;;;;5053287;28;20201;-66
2020/12/26 04:06:11;;;;;;;11.50;9.30;;;4.30;99.90;;;;;;5055629;28;20676;-65
2020/12/26 04:08:36;;;;;;;16.57;9.57;;;4.30;99.90;;;;;;5055813;28;20169;-64
2020/12/26 04:11:02;;;;;;;11.30;8.93;;;4.30;1.00;;;;;;5055475;28;20176;-65
2020/12/26 04:13:27;;;;;;;13.27;8.80;;;4.60;99.90;;;;;;5055515;28;20180;-64
2020/12/26 04:15:53;;;;;;;13.10;8.77;;;4.70;99.90;;;;;;5055404;28;20239;-65
2020/12/26 04:18:18;;;;;;;11.60;9.20;;;4.70;99.90;;;;;;5055399;28;20188;-65
2020/12/26 04:20:44;;;;;;;19.93;10.00;;;4.50;99.90;;;;;;5055362;28;20650;-65
2020/12/26 04:23:09;;;;;;;13.00;8.67;;;4.60;99.90;;;;;;5055334;28;20180;-65
2020/12/26 04:25:35;;;;;;;12.70;9.50;;;4.40;99.90;;;;;;5055203;28;20184;-65
2020/12/26 04:28:00;;;;;;;14.63;10.10;;;4.30;99.90;;;;;;5055215;28;20173;-65
2020/12/26 04:30:26;;;;;;;13.07;8.87;;;4.50;99.90;;;;;;5055140;28;20258;-65
2020/12/26 04:32:51;;;;;;;13.43;10.50;;;4.50;99.90;;;;;;5055028;28;20669;-65
2020/12/26 04:35:20;;;;;;;15.90;9.73;;;4.70;99.90;;;;;;5055097;28;20197;-65
2020/12/26 04:37:48;;;;;;;15.02;9.30;;;4.80;99.90;;;;;;5055058;28;20634;-65
2020/12/26 04:40:14;;;;;;;16.25;9.63;;;4.80;99.90;;;;;;5054969;28;20279;-64
2020/12/26 04:42:42;;;;;;;17.50;10.20;;;4.60;99.90;;;;;;5054990;28;20177;-65
2020/12/26 04:45:08;;;;;;;13.02;9.38;;;4.50;99.90;;;;;;5054688;28;20456;-65
2020/12/26 04:47:43;;;;;;;12.90;9.05;;;4.60;99.90;;;;;;5055142;28;20165;-65
2020/12/26 04:50:08;;;;;;;12.52;9.57;;;4.90;99.90;;;;;;5054864;28;20168;-65
2020/12/26 04:52:36;;;;;;;18.33;11.23;;;4.70;99.90;;;;;;5054650;28;20188;-65
2020/12/26 04:55:04;;;;;;;15.10;11.32;;;4.90;99.90;;;;;;5054873;28;20267;-65
2020/12/26 04:57:35;;;;;;;18.98;9.23;;;5.00;99.90;;;;;;5054890;28;20161;-65
2020/12/26 05:00:04;;;;;;;18.42;10.20;;;4.90;99.90;;;;;;5054564;28;20165;-65
2020/12/26 05:02:39;;;;;;;14.15;10.15;;;5.00;99.90;;;;;;5054492;28;20164;-65
2020/12/26 05:05:05;;;;;;;14.52;9.48;;;5.20;99.90;;;;;;5054590;28;20314;-65
2020/12/26 05:07:32;;;;;;;14.63;10.10;;;5.20;99.90;;;;;;5054475;28;20259;-65
2020/12/26 05:09:58;;;;;;;15.38;8.98;;;5.10;99.90;;;;;;5054360;28;20169;-65
2020/12/26 05:12:24;;;;;;;13.43;10.15;;;5.20;99.90;;;;;;5053013;28;20246;-63
2020/12/26 05:14:52;;;;;;;15.07;9.77;;;5.10;99.90;;;;;;5053559;28;20562;-65
2020/12/26 05:17:20;;;;;;;16.58;10.65;;;5.00;99.90;;;;;;5054244;28;20192;-65
2020/12/26 05:19:47;;;;;;;14.25;11.13;;;5.00;99.90;;;;;;5054271;28;20191;-65
2020/12/26 05:22:12;;;;;;;16.95;10.52;;;4.90;99.90;;;;;;5054199;28;20168;-65
2020/12/26 05:24:38;;;;;;;14.53;9.40;;;5.00;99.90;;;;;;5054089;28;20195;-65
2020/12/26 05:27:04;;;;;;;13.20;9.23;;;5.10;99.90;;;;;;5054055;28;20394;-64
2020/12/26 05:29:35;;;;;;;17.37;10.53;;;5.20;99.90;;;;;;5054027;28;20578;-65
2020/12/26 05:32:03;;;;;;;15.68;10.95;;;5.10;99.90;;;;;;5053952;28;20224;-65
2020/12/26 05:34:38;;;;;;;22.02;10.77;;;5.20;99.90;;;;;;5053828;28;20185;-65
2020/12/26 05:37:04;;;;;;;14.05;10.77;;;5.20;99.90;;;;;;5054148;28;20247;-61
2020/12/26 05:39:32;;;;;;;16.02;10.95;;;5.20;99.90;;;;;;5053834;28;20157;-65
2020/12/26 05:41:58;;;;;;;19.83;10.32;;;4.90;99.90;;;;;;5053801;28;20567;-65
2020/12/26 05:44:44;;;;;;;16.15;10.95;;;4.90;99.90;;;;;;5055002;28;20210;-65
2020/12/26 05:47:09;;;;;;;14.43;10.27;;;5.10;99.90;;;;;;5053724;28;20196;-65
2020/12/26 05:49:37;;;;;;;13.07;10.20;;;5.10;99.90;;;;;;5053725;28;20169;-65
2020/12/26 05:52:13;;;;;;;18.70;9.88;;;5.10;99.90;;;;;;5053550;28;20184;-65
2020/12/26 05:54:47;;;;;;;18.20;9.77;;;5.20;99.90;;;;;;5053717;28;20199;-65
2020/12/26 05:57:14;;;;;;;11.82;9.48;;;5.10;99.90;;;;;;5054087;28;20683;-65
2020/12/26 05:59:45;;;;;;;13.85;10.57;;;5.10;99.90;;;;;;5053699;28;20514;-65
2020/12/26 06:02:24;;;;;;;22.40;9.77;;;5.20;99.90;;;;;;5053535;28;20157;-65
2020/12/26 06:05:05;;;;;;;16.80;10.48;;;5.10;99.90;;;;;;5053349;28;20241;-65
2020/12/26 06:07:36;;;;;;;13.50;10.45;;;5.10;99.90;;;;;;5053629;28;20211;-65
2020/12/26 06:10:06;;;;;;;13.57;11.00;;;5.10;99.90;;;;;;5053556;28;20169;-66
2020/12/26 06:12:33;;;;;;;15.40;11.52;;;5.10;99.90;;;;;;5053439;28;20239;-65
2020/12/26 06:14:59;;;;;;;20.30;10.70;;;5.10;99.90;;;;;;5053185;28;20184;-65
2020/12/26 06:17:26;;;;;;;15.93;10.77;;;5.10;99.90;;;;;;5053190;28;20210;-65
2020/12/26 06:19:57;;;;;;;13.07;10.13;;;5.20;99.90;;;;;;5053144;28;20457;-65
2020/12/26 06:22:23;;;;;;;12.85;10.18;;;5.10;99.90;;;;;;5053399;28;20223;-65
2020/12/26 06:24:49;;;;;;;17.40;10.63;;;5.00;99.90;;;;;;5053081;28;20608;-65
2020/12/26 06:27:15;;;;;;;20.63;10.77;;;5.20;99.90;;;;;;5053178;28;20523;-65
2020/12/26 06:29:44;;;;;;;15.90;11.20;;;5.00;99.90;;;;;;5053147;28;20176;-65
2020/12/26 06:32:13;;;;;;;15.80;9.95;;;5.20;99.90;;;;;;5052934;28;20189;-65
2020/12/26 06:34:41;;;;;;;13.50;10.18;;;5.40;99.90;;;;;;5052867;28;20196;-65
2020/12/26 06:37:10;;;;;;;18.00;10.15;;;5.30;99.90;;;;;;5052940;28;20161;-65
2020/12/26 06:39:36;;;;;;;14.30;9.95;;;5.30;99.90;;;;;;5053181;28;20260;-65
2020/12/26 06:42:10;;;;;;;19.77;11.25;;;5.30;99.90;;;;;;5052870;28;20165;-65
2020/12/26 06:44:36;;;;;;;14.27;10.13;;;5.40;99.90;;;;;;5051357;28;20208;-65
2020/12/26 06:47:02;;;;;;;16.80;10.30;;;5.30;99.90;;;;;;5052998;28;20172;-64
2020/12/26 06:49:28;;;;;;;13.90;10.17;;;5.20;99.90;;;;;;5053003;28;20207;-65
2020/12/26 06:51:53;;;;;;;15.03;11.43;;;5.30;99.90;;;;;;5053182;28;20443;-65
2020/12/26 06:54:39;;;;;;;15.80;11.07;;;5.40;99.90;;;;;;5052675;28;20692;-65
2020/12/26 06:57:05;;;;;;;14.48;10.98;;;5.30;99.90;;;;;;5052708;28;20366;-65
2020/12/26 06:59:33;;;;;;;17.00;12.90;;;5.20;99.90;;;;;;5052965;28;20173;-65
2020/12/26 07:02:08;;;;;;;16.17;10.88;;;5.20;99.90;;;;;;5052667;28;20168;-65
2020/12/26 07:04:39;;;;;;;16.98;10.82;;;5.40;99.90;;;;;;5052551;28;20583;-65
2020/12/26 07:07:05;;;;;;;14.55;11.57;;;5.30;99.90;;;;;;5052637;28;20172;-65
2020/12/26 07:09:36;;;;;;;17.40;11.23;;;5.30;99.90;;;;;;5053246;28;20255;-65
2020/12/26 07:12:06;;;;;;;20.23;13.25;;;5.20;99.90;;;;;;5053249;28;20478;-65
2020/12/26 07:14:38;;;;;;;17.92;12.02;;;5.10;99.90;;;;;;5052614;28;20208;-65
2020/12/26 07:17:05;;;;;;;19.00;12.90;;;5.10;99.90;;;;;;5053250;28;20350;-64
2020/12/26 07:19:53;;;;;;;19.60;13.00;;;5.20;99.90;;;;;;5052523;28;20165;-65
2020/12/26 07:22:23;;;;;;;24.70;12.50;;;5.20;99.90;;;;;;5052726;28;20491;-63
2020/12/26 07:25:06;;;;;;;25.10;13.82;;;5.10;99.90;;;;;;5052416;28;20221;-64
2020/12/26 07:27:39;;;;;;;19.75;12.75;;;5.10;99.90;;;;;;5052779;28;20159;-65
2020/12/26 07:30:12;;;;;;;19.02;13.75;;;5.30;99.90;;;;;;5052685;28;20279;-64
2020/12/26 07:32:37;;;;;;;18.27;13.68;;;5.10;99.90;;;;;;5052370;28;20279;-64
2020/12/26 07:35:03;;;;;;;24.67;12.93;;;5.20;99.90;;;;;;5052332;28;20549;-63
2020/12/26 07:37:29;;;;;;;19.27;13.75;;;5.20;99.90;;;;;;5052376;28;20196;-64
2020/12/26 07:39:54;;;;;;;20.80;15.20;;;4.80;99.90;;;;;;5055428;28;20172;-64
2020/12/26 07:42:22;;;;;;;23.63;16.40;;;4.80;1.00;;;;;;5056115;28;20249;-64
2020/12/26 07:44:48;;;;;;;20.52;13.90;;;4.90;1.00;;;;;;5056646;28;20216;-64
2020/12/26 07:47:14;;;;;;;18.48;14.85;;;4.80;99.90;;;;;;5054756;28;20230;-63
2020/12/26 07:49:40;;;;;;;20.75;12.57;;;4.70;1.00;;;;;;5054728;28;20177;-64
2020/12/26 07:52:09;;;;;;;19.40;13.47;;;4.90;99.90;;;;;;5055868;28;20539;-64
2020/12/26 07:54:35;;;;;;;23.92;13.63;;;4.80;99.90;;;;;;5055991;28;20231;-64
2020/12/26 07:57:02;;;;;;;20.08;13.43;;;5.00;99.90;;;;;;5055797;28;20165;-64
2020/12/26 07:59:28;;;;;;;18.92;12.73;;;5.10;99.90;;;;;;5055777;28;20633;-64
2020/12/26 08:01:55;;;;;;;15.50;9.13;;;4.90;99.90;;;;;;5055793;28;20253;-64
2020/12/26 08:04:21;;;;;;;17.05;12.43;;;5.00;99.90;;;;;;5055584;28;20193;-65
2020/12/26 08:06:48;;;;;;;17.52;11.68;;;4.80;99.90;;;;;;5055887;28;20608;-65
2020/12/26 08:09:15;;;;;;;15.65;8.90;;;5.10;99.90;;;;;;5055679;28;20173;-64
2020/12/26 08:11:42;;;;;;;16.33;9.27;;;5.10;99.90;;;;;;5054234;28;20192;-62
2020/12/26 08:14:08;;;;;;;16.00;9.43;;;4.90;99.90;;;;;;5055741;28;20215;-64
2020/12/26 08:16:35;;;;;;;15.27;8.10;;;5.10;99.90;;;;;;5055471;28;20236;-64
2020/12/26 08:19:02;;;;;;;11.60;7.80;;;5.20;99.90;;;;;;5055684;28;20196;-64
2020/12/26 08:21:28;;;;;;;13.77;7.90;;;5.00;99.90;;;;;;5055694;28;20169;-64
2020/12/26 08:23:58;;;;;;;12.57;7.20;;;4.90;99.90;;;;;;5055273;28;20263;-65
2020/12/26 08:26:25;;;;;;;8.90;6.63;;;5.00;99.90;;;;;;5055336;28;20176;-65
2020/12/26 08:28:58;;;;;;;12.40;7.05;;;4.70;99.90;;;;;;5055903;28;20196;-65
2020/12/26 08:31:24;;;;;;;9.70;6.60;;;5.00;99.90;;;;;;5055232;28;20195;-65
2020/12/26 08:34:01;;;;;;;9.77;6.25;;;4.90;99.90;;;;;;5055432;28;20687;-65
2020/12/26 08:36:35;;;;;;;12.60;7.93;;;4.70;99.90;;;;;;5055430;28;20207;-65
2020/12/26 08:39:02;;;;;;;8.05;7.20;;;4.80;99.90;;;;;;5055580;28;20605;-64
2020/12/26 08:41:28;;;;;;;11.27;6.55;;;4.70;99.90;;;;;;5055423;28;20215;-64
2020/12/26 08:43:54;;;;;;;12.60;6.37;;;4.70;99.90;;;;;;5055238;28;20208;-64
2020/12/26 08:46:23;;;;;;;8.20;5.80;;;4.40;99.90;;;;;;5053840;28;20908;-64
2020/12/26 08:48:49;;;;;;;6.00;5.40;;;4.50;99.90;;;;;;5055196;28;20184;-64
2020/12/26 08:51:27;;;;;;;7.87;6.70;;;4.70;99.90;;;;;;5054575;28;20708;-64
2020/12/26 08:53:56;;;;;;;8.95;6.00;;;4.70;99.90;;;;;;5054815;28;20882;-64
2020/12/26 08:56:36;;;;;;;9.45;6.18;;;4.60;99.90;;;;;;5055480;28;20285;-64
2020/12/26 08:59:02;;;;;;;8.82;5.20;;;4.60;99.90;;;;;;5054930;28;20171;-64
2020/12/26 09:01:28;;;;;;;7.15;4.97;;;4.60;99.90;;;;;;5055174;28;20327;-65
2020/12/26 09:03:56;;;;;;;9.40;5.78;;;4.70;99.90;;;;;;5053459;28;20542;-64
2020/12/26 09:06:40;;;;;;;9.75;5.72;;;4.80;99.90;;;;;;5054876;28;20175;-65
2020/12/26 09:09:32;;;;;;;6.32;5.18;;;4.90;99.90;;;;;;5054823;28;20157;-64
2020/12/26 09:12:03;;;;;;;7.28;4.93;;;5.10;99.90;;;;;;5052562;28;20700;-63
2020/12/26 09:14:28;;;;;;;7.13;5.00;;;5.00;99.90;;;;;;5052980;28;20280;-64
2020/12/26 09:17:02;;;;;;;6.40;5.10;;;5.00;99.90;;;;;;5053134;28;20697;-63
2020/12/26 09:19:42;;;;;;;9.07;5.13;;;5.40;92.30;;;;;;5054599;28;20168;-65
2020/12/26 09:22:08;;;;;;;6.82;5.05;;;5.30;61.60;;;;;;5054803;28;20227;-65
2020/12/26 09:24:34;;;;;;;6.05;4.20;;;5.40;55.40;;;;;;5054159;28;20236;-64
2020/12/26 09:26:59;;;;;;;6.30;3.80;;;5.40;59.90;;;;;;5054139;28;20230;-65
2020/12/26 09:29:25;;;;;;;9.60;4.20;;;5.50;3.30;;;;;;5054493;28;20529;-65
2020/12/26 09:31:51;;;;;;;4.40;3.60;;;5.20;15.60;;;;;;5054834;28;20537;-64
2020/12/26 09:34:18;;;;;;;6.00;3.85;;;5.40;1.00;;;;;;5053981;28;20708;-65
2020/12/26 09:36:45;;;;;;;5.60;3.38;;;5.70;1.00;;;;;;5054343;28;20169;-65
2020/12/26 09:39:10;;;;;;;5.70;2.85;;;5.60;1.00;;;;;;5053912;28;20168;-65
2020/12/26 09:41:43;;;;;;;5.90;3.00;;;5.70;1.00;;;;;;5053970;28;20239;-64
2020/12/26 09:44:09;;;;;;;5.63;3.40;;;5.70;1.00;;;;;;5053623;28;20192;-65
2020/12/26 09:46:35;;;;;;;5.20;3.42;;;5.70;1.00;;;;;;5053930;28;20157;-65
2020/12/26 09:49:01;;;;;;;5.83;3.53;;;5.80;1.00;;;;;;5054154;28;20252;-65
2020/12/26 09:51:26;;;;;;;6.90;3.60;;;5.90;1.00;;;;;;5053861;28;20443;-65
2020/12/26 09:53:52;;;;;;;7.37;5.10;;;6.20;1.00;;;;;;5052372;28;20165;-65
2020/12/26 09:56:18;;;;;;;7.83;4.20;;;6.20;1.00;;;;;;5053711;28;20630;-65
2020/12/26 09:58:45;;;;;;;5.30;2.93;;;6.30;1.00;;;;;;5053557;28;20161;-65
2020/12/26 10:01:14;;;;;;;6.85;3.55;;;5.80;1.00;;;;;;5053323;28;20161;-65
2020/12/26 10:03:40;;;;;;;3.40;3.10;;;6.20;1.00;;;;;;5053326;28;20165;-64
2020/12/26 10:06:14;;;;;;;3.28;2.80;;;6.20;1.00;;;;;;5053776;28;20164;-65
2020/12/26 10:08:39;;;;;;;6.45;3.58;;;6.10;1.00;;;;;;5053653;28;20173;-64
2020/12/26 10:11:05;;;;;;;6.40;3.17;;;6.40;1.00;;;;;;5053391;28;20157;-64
2020/12/26 10:13:31;;;;;;;4.70;3.50;;;6.20;1.00;;;;;;5053207;28;20196;-64
2020/12/26 10:15:57;;;;;;;4.90;3.37;;;6.30;1.00;;;;;;5053349;28;20192;-65
2020/12/26 10:18:22;;;;;;;8.87;3.47;;;6.40;1.00;;;;;;5053300;28;20518;-65
2020/12/26 10:20:48;;;;;;;5.90;3.63;;;6.30;1.00;;;;;;5053389;28;20173;-65
2020/12/26 10:23:13;;;;;;;6.00;2.97;;;5.50;1.00;;;;;;5053472;28;20200;-64
2020/12/26 10:25:39;;;;;;;3.03;2.50;;;5.90;1.00;;;;;;5053058;28;20258;-65
2020/12/26 10:28:04;;;;;;;5.90;3.07;;;5.60;1.00;;;;;;5053162;28;20477;-65
2020/12/26 10:30:30;;;;;;;7.07;3.47;;;5.90;1.00;;;;;;5053128;28;20579;-62
2020/12/26 10:32:56;;;;;;;5.20;3.23;;;5.60;1.00;;;;;;5053000;28;20191;-65
2020/12/26 10:35:22;;;;;;;5.53;3.20;;;5.80;1.00;;;;;;5052916;28;20415;-64
2020/12/26 10:37:48;;;;;;;6.07;4.20;;;5.90;1.00;;;;;;5052042;28;20535;-64
2020/12/26 10:40:13;;;;;;;3.90;2.45;;;6.00;1.00;;;;;;5053502;28;20521;-64
2020/12/26 10:42:39;;;;;;;4.60;3.53;;;6.10;1.00;;;;;;5053159;28;20218;-65
2020/12/26 10:45:05;;;;;;;4.00;2.83;;;6.00;1.00;;;;;;5052586;28;20689;-63
2020/12/26 10:47:30;;;;;;;5.57;2.97;;;6.10;1.00;;;;;;5051484;28;20180;-65
2020/12/26 10:49:56;;;;;;;5.47;3.70;;;5.90;1.00;;;;;;5052818;28;20695;-64
2020/12/26 10:52:21;;;;;;;14.20;3.17;;;6.00;1.00;;;;;;5052677;28;20262;-64
2020/12/26 10:54:47;;;;;;;13.03;4.30;;;5.70;1.00;;;;;;5052688;28;20580;-64
2020/12/26 10:57:12;;;;;;;4.93;2.00;;;5.80;1.00;;;;;;5052977;28;20160;-64
2020/12/26 10:59:38;;;;;;;4.80;2.83;;;5.50;1.00;;;;;;5052841;28;20161;-64
2020/12/26 11:02:04;;;;;;;3.60;2.23;;;5.70;1.00;;;;;;5053059;28;20173;-64
2020/12/26 11:04:30;;;;;;;6.63;3.33;;;5.70;1.00;;;;;;5052711;28;20553;-64
2020/12/26 11:06:55;;;;;;;9.47;3.13;;;5.50;1.00;;;;;;5052744;28;20407;-64
2020/12/26 11:09:21;;;;;;;5.93;2.53;;;5.90;1.00;;;;;;5052921;28;20381;-64
2020/12/26 11:11:51;;;;;;;6.47;3.00;;;6.40;1.00;;;;;;5052926;28;20188;-65
2020/12/26 11:14:18;;;;;;;6.03;3.08;;;6.70;1.00;;;;;;5054742;28;20200;-65
2020/12/26 11:16:48;;;;;;;4.13;2.00;;;6.60;1.00;;;;;;5056958;28;20186;-64
2020/12/26 11:19:14;;;;;;;3.97;2.13;;;6.60;1.00;;;;;;5056611;28;20180;-65
2020/12/26 11:21:40;;;;;;;3.65;1.67;;;6.70;1.00;;;;;;5056800;28;20290;-64
2020/12/26 11:24:05;;;;;;;4.73;2.07;;;6.60;1.00;;;;;;5056526;28;20291;-64
2020/12/26 11:26:31;;;;;;;6.53;3.33;;;6.60;1.00;;;;;;5056582;28;20537;-64
2020/12/26 11:28:57;;;;;;;4.03;1.67;;;6.60;1.00;;;;;;5055979;28;20181;-66
2020/12/26 11:31:24;;;;;;;6.23;2.07;;;6.50;1.00;;;;;;5056439;28;20176;-64
2020/12/26 11:33:49;;;;;;;3.30;2.20;;;6.40;1.00;;;;;;5056403;28;20319;-64
2020/12/26 11:36:22;;;;;;;4.47;1.90;;;6.40;1.00;;;;;;5056346;28;20203;-64
2020/12/26 11:38:49;;;;;;;4.95;1.95;;;6.70;1.00;;;;;;5056615;28;20255;-64
2020/12/26 11:41:19;;;;;;;4.75;2.30;;;6.80;1.00;;;;;;5056494;28;20214;-64
2020/12/26 11:43:45;;;;;;;8.70;1.73;;;6.90;1.00;;;;;;5056088;28;20245;-64
2020/12/26 11:46:12;;;;;;;3.00;1.27;;;7.00;1.00;;;;;;5058150;28;20264;-64
2020/12/26 11:48:37;;;;;;;1.70;1.30;;;7.50;1.00;;;;;;5056656;28;20461;-64
2020/12/26 11:51:04;;;;;;;2.57;1.47;;;7.20;1.00;;;;;;5056043;28;20169;-64
2020/12/26 11:53:30;;;;;;;2.95;1.13;;;6.70;1.00;;;;;;5055876;28;20196;-64
2020/12/26 11:55:55;;;;;;;3.63;1.30;;;7.00;1.00;;;;;;5054829;28;20185;-64
2020/12/26 11:58:23;;;;;;;3.57;1.43;;;7.00;1.00;;;;;;5055859;28;20638;-64
2020/12/26 12:00:50;;;;;;;4.78;1.60;;;6.70;1.00;;;;;;5054726;28;20169;-64
2020/12/26 12:03:16;;;;;;;1.67;1.10;;;6.80;1.00;;;;;;5056328;28;20161;-64
2020/12/26 12:05:41;;;;;;;7.80;2.03;;;6.50;1.00;;;;;;5056470;28;20196;-64
2020/12/26 12:08:07;;;;;;;2.97;1.80;;;6.60;1.00;;;;;;5054601;28;20233;-64
2020/12/26 12:10:32;;;;;;;5.10;1.80;;;6.70;1.00;;;;;;5056080;28;20161;-64
2020/12/26 12:12:58;;;;;;;3.30;1.60;;;6.90;1.00;;;;;;5055661;28;20716;-64
2020/12/26 12:15:23;;;;;;;4.90;1.60;;;6.50;1.00;;;;;;5055630;28;20657;-64
2020/12/26 12:17:49;;;;;;;3.70;1.80;;;6.80;1.00;;;;;;5055593;28;20389;-64
2020/12/26 12:20:15;;;;;;;6.57;1.67;;;6.80;1.00;;;;;;5054364;28;20256;-65
2020/12/26 12:22:42;;;;;;;5.10;1.70;;;7.10;1.00;;;;;;5055529;28;20524;-65
2020/12/26 12:25:07;;;;;;;7.57;1.90;;;7.10;1.00;;;;;;5054884;28;20189;-65
2020/12/26 12:27:33;;;;;;;4.70;1.73;;;6.80;1.00;;;;;;5055274;28;20184;-64
2020/12/26 12:29:58;;;;;;;7.43;2.90;;;6.90;1.00;;;;;;5055291;28;20637;-65
2020/12/26 12:32:24;;;;;;;1.93;1.30;;;7.30;1.00;;;;;;5055396;28;20680;-65
2020/12/26 12:34:49;;;;;;;3.10;1.50;;;7.00;1.00;;;;;;5055442;28;20189;-65
2020/12/26 12:37:15;;;;;;;2.30;1.40;;;7.10;1.00;;;;;;5055352;28;20541;-65
2020/12/26 12:39:40;;;;;;;2.10;1.10;;;6.90;1.00;;;;;;5055255;28;20164;-65
2020/12/26 12:42:07;;;;;;;2.37;1.17;;;6.90;1.00;;;;;;5055418;28;20255;-65
2020/12/26 12:44:34;;;;;;;3.10;1.17;;;6.70;1.00;;;;;;5055135;28;20295;-64
2020/12/26 12:47:01;;;;;;;3.83;1.20;;;6.70;1.00;;;;;;5055330;28;20197;-65
2020/12/26 12:49:27;;;;;;;2.67;1.45;;;6.50;1.00;;;;;;5055039;28;20202;-65
2020/12/26 12:51:53;;;;;;;2.33;1.20;;;6.60;1.00;;;;;;5053726;28;20203;-65